Time;durP1;ratioP1;P1;durP2;ratioP2;P2;SDS_P1;SDS_P2;PMS_P1;PMS_P2;Temp;Humidity;BMP_temperature;BMP_pressure;BME280_temperature;BME280_humidity;BME280_pressure;Samples;Min_cycle;Max_cycle;Signal;HPM_P1;HPM_P2
2021/12/07 00:01:42;;;;;;;12.60;2.63;;;;;;;6.92;100.00;100397.50;5123088;27;20023;-70
2021/12/07 00:04:08;;;;;;;12.27;3.40;;;;;;;6.81;100.00;100407.53;5127428;27;20049;-70
2021/12/07 00:06:36;;;;;;;17.25;3.22;;;;;;;7.04;100.00;100402.69;5141144;27;20518;-69
2021/12/07 00:09:06;;;;;;;18.52;3.72;;;;;;;6.90;100.00;100410.56;5073056;27;20035;-71
2021/12/07 00:11:31;;;;;;;23.42;3.28;;;;;;;6.86;100.00;100405.94;5123848;27;20494;-70
2021/12/07 00:13:58;;;;;;;17.55;3.20;;;;;;;6.84;100.00;100425.28;5140607;27;20023;-70
2021/12/07 00:16:25;;;;;;;14.27;3.50;;;;;;;6.95;100.00;100420.66;5145431;27;20388;-69
2021/12/07 00:18:51;;;;;;;14.90;3.50;;;;;;;6.84;100.00;100429.88;5122539;27;20087;-69
2021/12/07 00:21:18;;;;;;;12.90;2.88;;;;;;;6.69;100.00;100436.09;5126645;27;20031;-70
2021/12/07 00:23:47;;;;;;;12.32;3.25;;;;;;;6.75;100.00;100430.41;5102968;27;20047;-70
2021/12/07 00:26:12;;;;;;;15.48;3.20;;;;;;;6.66;100.00;100433.91;5129997;27;20380;-71
2021/12/07 00:28:40;;;;;;;12.00;3.15;;;;;;;6.73;100.00;100445.38;5123506;27;20464;-69
2021/12/07 00:31:24;;;;;;;9.63;2.30;;;;;;;6.88;100.00;100447.34;5108997;27;20487;-71
2021/12/07 00:36:44;;;;;;;12.80;2.88;;;;;;;6.70;100.00;100454.09;5124981;27;20400;-69
2021/12/07 00:39:11;;;;;;;18.42;3.17;;;;;;;6.80;100.00;100454.97;5106148;27;20031;-71
2021/12/07 00:41:41;;;;;;;12.50;3.15;;;;;;;6.73;100.00;100461.75;5107476;27;20477;-70
2021/12/07 00:44:06;;;;;;;18.52;3.03;;;;;;;6.73;100.00;100461.75;5103962;27;20047;-70
2021/12/07 00:46:33;;;;;;;12.32;2.72;;;;;;;6.75;100.00;100463.09;5103301;27;20880;-69
2021/12/07 00:48:59;;;;;;;16.27;3.17;;;;;;;6.62;100.00;100474.47;5122961;27;20023;-68
2021/12/07 00:51:25;;;;;;;14.15;3.47;;;;;;;6.73;100.00;100475.34;5125016;27;20069;-68
2021/12/07 00:53:51;;;;;;;18.13;2.92;;;;;;;6.77;100.00;100482.75;5123990;27;20149;-68
2021/12/07 00:56:16;;;;;;;15.45;3.08;;;;;;;6.75;100.00;100478.63;5124858;27;20027;-69
2021/12/07 00:58:42;;;;;;;13.50;2.70;;;;;;;6.70;100.00;100503.94;5102462;27;20056;-68
2021/12/07 01:01:15;;;;;;;13.48;2.72;;;;;;;6.84;100.00;100476.22;5104845;27;20569;-69
2021/12/07 01:03:43;;;;;;;13.75;3.13;;;;;;;6.71;100.00;100499.34;5107963;27;20485;-68
2021/12/07 01:25:03;;;;;;;18.75;3.65;;;;;;;6.62;100.00;100529.78;5108484;27;20076;-71
2021/12/07 01:27:29;;;;;;;20.05;3.35;;;;;;;6.53;100.00;100536.00;5119817;27;20039;-69
2021/12/07 01:30:06;;;;;;;11.02;2.70;;;;;;;6.55;100.00;100537.34;5107250;27;20751;-69
2021/12/07 01:32:52;;;;;;;14.52;2.63;;;;;;;6.53;100.00;100542.25;5086498;27;20023;-69
2021/12/07 01:40:49;;;;;;;15.52;3.15;;;;;;;6.65;100.00;100544.78;5124159;27;20049;-68
2021/12/07 01:59:34;;;;;;;17.40;3.03;;;;;;;6.39;100.00;100590.09;5142072;27;20059;-69
2021/12/07 02:02:04;;;;;;;12.27;3.08;;;;;;;6.53;100.00;100587.75;5140359;27;20022;-68
2021/12/07 02:04:30;;;;;;;14.32;2.65;;;;;;;6.38;100.00;100585.72;5123628;27;20034;-69
2021/12/07 02:06:56;;;;;;;12.73;2.47;;;;;;;6.47;100.00;100595.03;5105984;27;20027;-69
2021/12/07 02:09:21;;;;;;;14.63;2.47;;;;;;;6.49;100.00;100611.94;5124655;27;20030;-67
2021/12/07 02:11:58;;;;;;;14.50;2.83;;;;;;;6.60;100.00;100602.75;5122661;27;20019;-68
2021/12/07 02:14:24;;;;;;;17.50;3.72;;;;;;;6.57;100.00;100603.28;5103520;27;20019;-68
2021/12/07 02:16:54;;;;;;;13.85;2.72;;;;;;;6.36;100.00;100604.22;5085338;27;20023;-68
2021/12/07 02:19:21;;;;;;;12.50;2.60;;;;;;;6.46;100.00;100600.75;5123939;27;20023;-69
2021/12/07 02:21:52;;;;;;;19.00;3.38;;;;;;;6.57;100.00;100613.38;5123421;27;20029;-69
2021/12/07 02:24:18;;;;;;;13.57;2.85;;;;;;;6.41;100.00;100621.44;5123187;27;20146;-69
2021/12/07 02:26:48;;;;;;;15.80;2.88;;;;;;;6.55;100.00;100635.41;5122177;27;20097;-69
2021/12/07 02:29:14;;;;;;;11.13;2.65;;;;;;;6.51;100.00;100637.03;5103610;27;20530;-68
2021/12/07 02:31:41;;;;;;;16.70;3.05;;;;;;;6.46;100.00;100634.28;5107899;27;20520;-69
2021/12/07 02:34:07;;;;;;;14.52;2.70;;;;;;;6.44;100.00;100636.41;5108232;27;20529;-69
2021/12/07 02:36:34;;;;;;;14.50;2.83;;;;;;;6.60;100.00;100640.09;5108827;27;20444;-70
2021/12/07 02:39:00;;;;;;;12.30;3.03;;;;;;;6.45;100.00;100640.78;5126091;27;20113;-69
2021/12/07 02:41:25;;;;;;;11.60;2.58;;;;;;;6.46;100.00;100641.59;5127110;27;20102;-69
2021/12/07 02:43:55;;;;;;;11.07;2.10;;;;;;;6.56;100.00;100636.22;5110857;27;20047;-68
2021/12/07 02:46:21;;;;;;;15.07;2.97;;;;;;;6.69;100.00;100645.88;5124922;27;20034;-69
2021/12/07 02:48:46;;;;;;;15.25;2.65;;;;;;;6.48;100.00;100643.00;5109103;27;20035;-68
2021/12/07 02:51:12;;;;;;;15.98;3.33;;;;;;;6.36;100.00;100654.06;5124842;27;20392;-70
2021/12/07 02:53:37;;;;;;;16.92;2.88;;;;;;;6.61;100.00;100653.44;5092776;27;20118;-69
2021/12/07 02:56:05;;;;;;;11.48;2.75;;;;;;;6.57;100.00;100651.50;5126946;27;20035;-67
2021/12/07 02:58:31;;;;;;;13.65;3.10;;;;;;;6.47;100.00;100652.25;5124932;27;20091;-69
2021/12/07 03:01:08;;;;;;;13.82;2.75;;;;;;;6.49;100.00;100649.25;5124830;27;20031;-69
2021/12/07 03:03:41;;;;;;;15.43;2.80;;;;;;;6.48;100.00;100661.22;5107040;27;20179;-69
2021/12/07 03:06:20;;;;;;;13.43;2.50;;;;;;;6.66;100.00;100660.00;5128105;27;20427;-69
2021/12/07 03:28:10;;;;;;;14.00;2.60;;;;;;;6.73;100.00;100690.59;5142727;27;20174;-68
2021/12/07 03:30:36;;;;;;;15.07;2.53;;;;;;;6.69;100.00;100686.72;5129107;27;20037;-68
2021/12/07 03:33:03;;;;;;;9.30;2.05;;;;;;;6.82;100.00;100689.00;5125053;27;20026;-68
2021/12/07 03:35:29;;;;;;;17.67;2.92;;;;;;;6.73;100.00;100702.31;5148934;27;20338;-68
2021/12/07 03:37:55;;;;;;;12.80;2.67;;;;;;;6.72;100.00;100699.84;5127142;27;20090;-69
2021/12/07 03:40:21;;;;;;;15.50;3.30;;;;;;;6.76;100.00;100700.97;5105411;27;20027;-69
2021/12/07 03:42:46;;;;;;;10.82;2.20;;;;;;;6.65;100.00;100700.06;5121620;27;20065;-68
2021/12/07 03:45:12;;;;;;;11.65;2.47;;;;;;;6.66;100.00;100700.88;5126440;27;20039;-68
2021/12/07 03:47:39;;;;;;;13.32;2.95;;;;;;;6.82;100.00;100697.19;5105265;27;20071;-68
2021/12/07 03:50:06;;;;;;;12.45;2.58;;;;;;;6.78;100.00;100701.53;5107859;27;20035;-67
2021/12/07 03:52:31;;;;;;;12.45;2.47;;;;;;;6.65;100.00;100701.97;5107059;27;20035;-68
2021/12/07 03:54:57;;;;;;;13.15;2.30;;;;;;;6.80;100.00;100697.47;5107105;27;20092;-68
2021/12/07 03:57:26;;;;;;;10.32;2.20;;;;;;;6.78;100.00;100704.25;5086085;27;20511;-67
2021/12/07 03:59:52;;;;;;;16.02;3.22;;;;;;;6.73;100.00;100701.50;5124521;27;20473;-68
2021/12/07 04:02:18;;;;;;;10.88;2.88;;;;;;;6.76;100.00;100709.16;5104618;27;20041;-67
2021/12/07 04:04:43;;;;;;;16.80;3.05;;;;;;;6.82;100.00;100708.09;5074878;27;20054;-68
2021/12/07 04:07:09;;;;;;;11.40;3.08;;;;;;;6.84;100.00;100713.28;5106170;27;20063;-69
2021/12/07 04:09:34;;;;;;;13.65;2.80;;;;;;;6.92;100.00;100701.91;5125863;27;20094;-68
2021/12/07 04:12:00;;;;;;;13.68;2.67;;;;;;;6.60;100.00;100709.00;5104994;27;20030;-68
2021/12/07 04:14:26;;;;;;;17.83;3.08;;;;;;;6.77;100.00;100727.97;5105606;27;20489;-69
2021/12/07 04:16:51;;;;;;;12.50;2.90;;;;;;;6.73;100.00;100715.94;5105007;27;20031;-68
2021/12/07 04:19:17;;;;;;;9.85;2.42;;;;;;;6.77;100.00;100711.63;5125142;27;20041;-68
2021/12/07 04:21:42;;;;;;;11.35;2.20;;;;;;;6.88;100.00;100722.59;5129114;27;20431;-68
2021/12/07 04:24:08;;;;;;;10.60;2.35;;;;;;;6.68;100.00;100724.06;5111969;27;20038;-69
2021/12/07 04:26:34;;;;;;;13.23;2.67;;;;;;;6.73;100.00;100726.00;5090215;27;20031;-69
2021/12/07 04:29:00;;;;;;;11.30;2.83;;;;;;;6.82;100.00;100738.06;5085112;27;20034;-67
2021/12/07 04:31:25;;;;;;;10.90;2.50;;;;;;;6.75;100.00;100740.19;5070876;27;20454;-68
2021/12/07 04:33:51;;;;;;;8.25;2.30;;;;;;;6.75;100.00;100734.75;5126735;27;20034;-68
2021/12/07 04:36:17;;;;;;;11.77;2.53;;;;;;;6.60;100.00;100738.16;5123887;27;20111;-69
2021/12/07 04:38:42;;;;;;;9.82;2.17;;;;;;;6.55;100.00;100741.66;5090567;27;20023;-69
2021/12/07 04:41:09;;;;;;;8.82;2.08;;;;;;;6.55;100.00;100733.47;5105938;27;20049;-68
2021/12/07 04:43:37;;;;;;;11.38;2.17;;;;;;;6.47;100.00;100728.50;5082951;28;20170;-68
2021/12/07 04:59:37;;;;;;;10.68;2.17;;;;;;;6.45;100.00;100744.28;5103734;28;20447;-68
2021/12/07 05:02:04;;;;;;;16.25;2.33;;;;;;;6.37;100.00;100752.91;5082292;28;20472;-69
2021/12/07 05:04:32;;;;;;;11.70;2.90;;;;;;;6.36;100.00;100759.41;5105325;28;20035;-69
2021/12/07 05:07:28;;;;;;;13.65;2.47;;;;;;;6.55;100.00;100762.63;5119671;27;20031;-69
2021/12/07 05:14:43;;;;;;;9.38;2.53;;;;;;;6.35;100.00;100757.78;5123695;27;20507;-69
2021/12/07 05:38:40;;;;;;;11.40;2.28;;;;;;;6.34;100.00;100811.41;5105342;28;20054;-68
2021/12/07 05:41:07;;;;;;;9.73;2.45;;;;;;;6.31;100.00;100811.91;5103189;28;20489;-68
2021/12/07 05:43:34;;;;;;;8.13;2.30;;;;;;;6.42;100.00;100812.88;5082847;28;20044;-67
2021/12/07 05:46:00;;;;;;;5.88;1.88;;;;;;;6.37;100.00;100819.06;5086651;28;20031;-70
2021/12/07 05:48:26;;;;;;;9.75;2.45;;;;;;;6.24;100.00;100800.41;5100976;28;20030;-68
2021/12/07 05:50:51;;;;;;;10.35;2.20;;;;;;;6.18;100.00;100798.69;5105455;28;20031;-69
2021/12/07 05:53:17;;;;;;;14.65;2.60;;;;;;;6.35;100.00;100795.91;5102539;28;20039;-69
2021/12/07 05:55:42;;;;;;;8.52;2.15;;;;;;;6.33;100.00;100792.59;5103934;28;20060;-69
2021/12/07 05:58:08;;;;;;;12.55;2.17;;;;;;;6.27;100.00;100794.47;5098485;28;20143;-68
2021/12/07 06:00:36;;;;;;;11.15;2.72;;;;;;;6.50;100.00;100781.66;5102969;28;20461;-68
2021/12/07 06:03:09;;;;;;;6.30;2.20;;;;;;;6.32;100.00;100793.69;5100207;28;20332;-68
2021/12/07 06:05:36;;;;;;;11.18;2.30;;;;;;;6.28;100.00;100784.38;5106209;28;20073;-68
2021/12/07 06:08:03;;;;;;;8.55;2.25;;;;;;;6.33;100.00;100789.88;5105649;27;20036;-69
2021/12/07 06:10:31;;;;;;;12.43;3.05;;;;;;;6.38;100.00;100800.84;5070191;28;20058;-69
2021/12/07 06:12:57;;;;;;;9.73;2.30;;;;;;;6.32;100.00;100790.97;5083867;28;20023;-68
2021/12/07 06:15:24;;;;;;;9.52;2.13;;;;;;;6.20;100.00;100794.66;5105761;28;20093;-68
2021/12/07 06:17:50;;;;;;;12.00;2.47;;;;;;;6.22;100.00;100791.69;5125689;27;20038;-69
2021/12/07 06:20:17;;;;;;;8.50;2.33;;;;;;;6.37;100.00;100791.84;5127139;27;20042;-68
2021/12/07 06:22:43;;;;;;;13.70;2.42;;;;;;;6.40;100.00;100791.34;5128315;27;20031;-68
2021/12/07 06:25:10;;;;;;;6.95;2.10;;;;;;;6.35;100.00;100795.91;5129351;27;20050;-68
2021/12/07 06:27:37;;;;;;;9.80;2.22;;;;;;;6.19;100.00;100794.91;5104157;27;20481;-68
2021/12/07 06:30:04;;;;;;;9.00;2.13;;;;;;;6.04;100.00;100796.34;5126964;27;20052;-68
2021/12/07 06:32:29;;;;;;;10.48;2.53;;;;;;;6.24;100.00;100811.28;5125468;27;20030;-68
2021/12/07 06:34:55;;;;;;;9.70;2.42;;;;;;;6.54;100.00;100810.84;5125990;27;20168;-68
2021/12/07 06:37:20;;;;;;;12.82;2.28;;;;;;;6.32;100.00;100810.03;5123432;27;20453;-69
2021/12/07 06:39:46;;;;;;;10.90;2.67;;;;;;;6.58;100.00;100800.25;5109581;27;20054;-68
2021/12/07 06:42:12;;;;;;;10.13;2.28;;;;;;;6.51;100.00;100797.72;5124678;27;20050;-68
2021/12/07 06:44:37;;;;;;;15.23;2.55;;;;;;;6.38;100.00;100798.13;5147802;27;20050;-68
2021/12/07 06:47:03;;;;;;;8.57;2.22;;;;;;;6.37;100.00;100804.66;5128232;27;20760;-67
2021/12/07 06:49:29;;;;;;;9.38;2.63;;;;;;;6.43;100.00;100803.63;5147181;27;20041;-68
2021/12/07 06:51:54;;;;;;;12.10;2.40;;;;;;;6.35;100.00;100795.91;5124672;27;20031;-68
2021/12/07 06:54:20;;;;;;;8.73;2.00;;;;;;;6.52;100.00;100802.09;5091606;27;20118;-68
2021/12/07 06:56:46;;;;;;;9.75;2.38;;;;;;;6.40;100.00;100794.06;5109505;27;20163;-69
2021/12/07 06:59:12;;;;;;;8.90;2.55;;;;;;;6.33;100.00;100804.34;5103717;27;20110;-67
2021/12/07 07:01:38;;;;;;;15.73;2.28;;;;;;;6.38;100.00;100796.22;5111650;27;20473;-67
2021/12/07 07:04:07;;;;;;;8.55;2.20;;;;;;;6.47;100.00;100802.03;5111770;27;20322;-68
2021/12/07 07:06:33;;;;;;;7.35;1.90;;;;;;;6.53;100.00;100809.19;5127709;27;20372;-67
2021/12/07 07:08:59;;;;;;;8.25;2.00;;;;;;;6.24;100.00;100816.75;5148268;27;20286;-68
2021/12/07 07:11:24;;;;;;;9.35;2.20;;;;;;;6.37;100.00;100813.63;5124205;27;20091;-68
2021/12/07 07:13:50;;;;;;;6.32;2.00;;;;;;;6.33;100.00;100807.06;5105970;27;20050;-69
2021/12/07 07:16:15;;;;;;;9.80;2.13;;;;;;;6.24;100.00;100812.13;5073815;27;20050;-68
2021/12/07 07:18:41;;;;;;;12.38;2.38;;;;;;;6.31;100.00;100811.09;5108949;27;20250;-69
2021/12/07 07:21:11;;;;;;;7.45;2.45;;;;;;;6.50;100.00;100804.25;5128085;27;20038;-69
2021/12/07 07:23:38;;;;;;;9.15;2.10;;;;;;;6.54;100.00;100788.22;5107840;27;20054;-68
2021/12/07 07:26:05;;;;;;;11.40;2.60;;;;;;;6.52;100.00;100790.38;5127528;27;20053;-69
2021/12/07 07:28:33;;;;;;;11.90;1.88;;;;;;;6.51;100.00;100777.81;5105052;27;20063;-68
2021/12/07 07:31:00;;;;;;;6.32;2.03;;;;;;;6.38;100.00;100774.44;5110519;27;20469;-68
2021/12/07 07:33:25;;;;;;;8.75;2.20;;;;;;;6.40;100.00;100779.63;5122588;27;20111;-68
2021/12/07 07:35:51;;;;;;;11.40;2.47;;;;;;;6.39;100.00;100777.97;5075317;27;20161;-69
2021/12/07 07:38:17;;;;;;;9.90;3.25;;;;;;;6.34;100.00;100778.72;5127197;27;20467;-68
2021/12/07 07:40:45;;;;;;;12.45;3.13;;;;;;;6.34;100.00;100772.47;5127487;27;20039;-68
2021/12/07 07:43:16;;;;;;;12.02;2.88;;;;;;;6.11;100.00;100776.31;5101762;28;20452;-68
2021/12/07 07:45:46;;;;;;;7.68;2.08;;;;;;;6.16;100.00;100773.63;5109767;27;20060;-68
2021/12/07 07:48:13;;;;;;;13.43;2.70;;;;;;;6.11;100.00;100771.66;5125207;27;20084;-68
2021/12/07 07:50:39;;;;;;;9.48;2.92;;;;;;;6.01;100.00;100774.28;5102445;28;20030;-68
2021/12/07 07:53:06;;;;;;;10.25;2.40;;;;;;;5.98;100.00;100778.31;5121930;27;20026;-68
2021/12/07 07:55:33;;;;;;;7.28;3.03;;;;;;;5.97;100.00;100784.00;5125869;27;20593;-68
2021/12/07 07:57:58;;;;;;;8.77;2.50;;;;;;;5.87;100.00;100790.94;5121392;27;20385;-68
2021/12/07 08:00:24;;;;;;;10.63;2.40;;;;;;;5.85;100.00;100778.66;5108956;27;20031;-68
2021/12/07 08:02:50;;;;;;;12.13;2.70;;;;;;;5.90;100.00;100789.59;5123460;27;20035;-69
2021/12/07 08:05:19;;;;;;;6.47;2.58;;;;;;;5.81;100.00;100782.97;5125284;27;20034;-68
2021/12/07 08:07:47;;;;;;;10.95;3.75;;;;;;;5.84;100.00;100779.75;5125140;27;20061;-68
2021/12/07 08:10:16;;;;;;;10.30;2.90;;;;;;;5.83;100.00;100778.91;5108970;27;20125;-68
2021/12/07 08:12:42;;;;;;;8.52;3.00;;;;;;;5.88;100.00;100778.97;5102420;27;20141;-68
2021/12/07 08:15:08;;;;;;;16.00;3.67;;;;;;;5.79;100.00;100779.66;5126548;27;20115;-68
2021/12/07 08:17:34;;;;;;;14.90;3.42;;;;;;;5.73;100.00;100781.50;5119041;27;20497;-68
2021/12/07 08:19:59;;;;;;;11.90;3.10;;;;;;;5.85;100.00;100775.94;5124699;27;20039;-68
2021/12/07 08:22:25;;;;;;;9.68;3.10;;;;;;;5.92;100.00;100775.75;5104143;27;20950;-68
2021/12/07 08:24:51;;;;;;;8.95;3.22;;;;;;;5.99;100.00;100787.31;5126052;27;20485;-67
2021/12/07 08:27:21;;;;;;;10.80;3.30;;;;;;;6.06;100.00;100790.66;5103831;27;20536;-67
2021/12/07 08:29:47;;;;;;;8.38;2.42;;;;;;;6.04;100.00;100792.81;5106373;27;20034;-67
2021/12/07 08:32:13;;;;;;;10.48;3.10;;;;;;;6.08;100.00;100793.94;5122174;27;20027;-67
2021/12/07 08:34:38;;;;;;;10.38;3.13;;;;;;;6.14;100.00;100789.41;5123419;27;20428;-67
2021/12/07 08:37:04;;;;;;;12.95;3.30;;;;;;;6.17;100.00;100778.00;5121749;27;20030;-68
2021/12/07 08:39:29;;;;;;;10.07;2.58;;;;;;;6.17;100.00;100787.00;5123881;27;20265;-67
2021/12/07 08:41:55;;;;;;;10.48;3.20;;;;;;;6.29;100.00;100786.03;5122431;27;20633;-67
2021/12/07 08:44:22;;;;;;;8.10;2.92;;;;;;;6.20;100.00;100783.75;5092916;27;20225;-67
2021/12/07 08:46:47;;;;;;;13.20;3.05;;;;;;;6.07;100.00;100767.81;5122163;27;20038;-68
2021/12/07 08:49:15;;;;;;;9.32;3.10;;;;;;;6.07;100.00;100773.28;5123688;27;20027;-69
2021/12/07 08:51:42;;;;;;;10.20;3.03;;;;;;;6.25;100.00;100777.56;5104955;27;20227;-68
2021/12/07 08:54:26;;;;;;;15.73;3.63;;;;;;;6.39;100.00;100780.69;5123632;27;20051;-68
2021/12/07 08:59:49;;;;;;;8.73;3.17;;;;;;;6.51;100.00;100775.09;5122932;27;20259;-67
2021/12/07 09:02:18;;;;;;;10.48;3.65;;;;;;;6.56;100.00;100781.44;5122722;27;20027;-69
2021/12/07 09:04:45;;;;;;;11.60;3.28;;;;;;;6.63;100.00;100783.97;5122344;27;20031;-68
2021/12/07 09:07:11;;;;;;;8.05;3.08;;;;;;;6.46;100.00;100777.78;5123428;27;20204;-67
2021/12/07 09:09:36;;;;;;;7.82;3.22;;;;;;;6.33;100.00;100774.38;5123369;27;20088;-68
2021/12/07 09:12:04;;;;;;;10.55;2.75;;;;;;;6.33;100.00;100779.84;5122143;27;20031;-68
2021/12/07 09:14:32;;;;;;;10.70;3.30;;;;;;;6.19;100.00;100775.84;5122976;27;20046;-68
2021/12/07 09:16:58;;;;;;;12.52;3.08;;;;;;;6.19;100.00;100770.41;5121737;27;20401;-68
2021/12/07 09:19:25;;;;;;;11.68;2.90;;;;;;;6.24;100.00;100784.88;5123866;27;20039;-68
2021/12/07 09:21:51;;;;;;;7.97;3.10;;;;;;;6.16;100.00;100779.91;5100108;28;20042;-67
2021/12/07 09:24:17;;;;;;;13.57;3.47;;;;;;;6.33;100.00;100770.81;5103023;28;20035;-68
2021/12/07 09:26:43;;;;;;;8.55;2.90;;;;;;;6.40;100.00;100782.34;5101104;28;20394;-68
2021/12/07 09:29:08;;;;;;;8.73;2.53;;;;;;;6.35;100.00;100771.41;5102306;28;20136;-68
2021/12/07 09:31:34;;;;;;;10.23;2.53;;;;;;;6.39;100.00;100765.16;5100141;28;20154;-68
2021/12/07 09:33:59;;;;;;;11.88;2.50;;;;;;;6.73;100.00;100778.59;5085009;28;20135;-67
2021/12/07 09:36:26;;;;;;;10.52;2.30;;;;;;;6.83;100.00;100772.41;5101400;28;20054;-67
2021/12/07 09:38:52;;;;;;;11.07;2.80;;;;;;;6.66;100.00;100779.88;5085240;27;20023;-67
2021/12/07 09:41:20;;;;;;;11.32;2.90;;;;;;;6.86;100.00;100787.44;5102863;28;20092;-68
2021/12/07 09:43:46;;;;;;;8.95;2.90;;;;;;;7.24;100.00;100789.13;5099033;28;20564;-68
2021/12/07 09:46:15;;;;;;;11.43;3.05;;;;;;;7.34;100.00;100797.38;5101470;28;20470;-67
2021/12/07 09:48:44;;;;;;;14.50;3.45;;;;;;;7.51;100.00;100790.94;5100177;28;20426;-67
2021/12/07 09:51:12;;;;;;;13.20;3.42;;;;;;;7.60;100.00;100794.81;5101013;28;20589;-67
2021/12/07 09:53:38;;;;;;;11.10;3.10;;;;;;;7.68;100.00;100801.69;5100740;28;20454;-67
2021/12/07 09:56:08;;;;;;;9.63;3.25;;;;;;;7.49;100.00;100801.28;5102446;28;20112;-68
2021/12/07 09:58:34;;;;;;;11.52;3.45;;;;;;;7.10;100.00;100799.66;5107575;28;20039;-68
2021/12/07 10:01:00;;;;;;;9.98;2.75;;;;;;;7.24;100.00;100802.75;5122485;27;20461;-69
2021/12/07 10:03:27;;;;;;;12.50;3.10;;;;;;;7.56;100.00;100801.91;5119101;28;20027;-67
2021/12/07 10:05:52;;;;;;;13.40;3.00;;;;;;;7.66;100.00;100792.97;5124176;27;20027;-67
2021/12/07 10:08:18;;;;;;;11.10;3.22;;;;;;;7.57;100.00;100795.34;5123825;27;20039;-68
2021/12/07 10:10:48;;;;;;;11.70;3.95;;;;;;;7.63;100.00;100793.47;5123238;27;20027;-68
2021/12/07 10:13:15;;;;;;;12.18;3.15;;;;;;;7.81;100.00;100778.56;5125450;27;20035;-68
2021/12/07 10:15:42;;;;;;;14.90;3.22;;;;;;;7.31;100.00;100770.63;5122996;27;20142;-68
2021/12/07 10:18:14;;;;;;;14.32;3.42;;;;;;;7.56;100.00;100766.44;5122143;27;20034;-67
2021/12/07 10:20:46;;;;;;;13.25;3.33;;;;;;;7.84;100.00;100761.69;5121654;27;20030;-68
2021/12/07 10:23:18;;;;;;;14.05;3.53;;;;;;;7.62;100.00;100770.00;5120572;27;20039;-68
2021/12/07 10:25:49;;;;;;;12.30;3.13;;;;;;;7.85;100.00;100753.19;5122194;27;20057;-68
2021/12/07 10:28:38;;;;;;;6.80;3.30;;;;;;;7.53;100.00;100751.41;5120693;27;20696;-68
2021/12/07 10:31:08;;;;;;;12.57;3.75;;;;;;;7.82;100.00;100739.25;5123971;28;20023;-67
2021/12/07 10:33:37;;;;;;;11.55;3.00;;;;;;;7.98;100.00;100738.22;5118723;28;20366;-67
2021/12/07 10:36:14;;;;;;;13.77;3.83;;;;;;;7.57;100.00;100731.78;5122860;27;20057;-68
2021/12/07 10:38:41;;;;;;;11.30;2.83;;;;;;;7.11;100.00;100724.94;5121992;27;20019;-67
2021/12/07 10:41:09;;;;;;;8.73;2.75;;;;;;;7.58;100.00;100726.06;5122337;27;20110;-67
2021/12/07 10:43:39;;;;;;;9.15;2.83;;;;;;;7.42;100.00;100719.69;5132782;27;20118;-67
2021/12/07 10:46:29;;;;;;;12.90;2.90;;;;;;;7.94;100.00;100722.69;5107594;27;20023;-67
2021/12/07 10:49:15;;;;;;;8.85;2.60;;;;;;;7.64;100.00;100724.16;5124747;27;20037;-68
2021/12/07 10:52:01;;;;;;;12.57;3.30;;;;;;;7.58;100.00;100717.06;5144271;27;20029;-68
2021/12/07 10:54:30;;;;;;;9.93;3.10;;;;;;;7.41;100.00;100717.22;5128459;27;20087;-68
2021/12/07 10:57:02;;;;;;;10.15;2.88;;;;;;;7.66;100.00;100717.38;5127837;27;20079;-67
2021/12/07 10:59:31;;;;;;;13.93;3.20;;;;;;;7.55;100.00;100702.84;5111531;27;20023;-68
2021/12/07 11:01:56;;;;;;;6.88;2.55;;;;;;;7.69;100.00;100708.66;5127016;27;20034;-67
2021/12/07 11:04:33;;;;;;;10.25;2.80;;;;;;;8.05;100.00;100707.94;5112164;27;20045;-68
2021/12/07 11:07:27;;;;;;;10.50;3.35;;;;;;;8.03;100.00;100704.66;5145840;27;20217;-68
2021/12/07 11:10:06;;;;;;;10.80;3.25;;;;;;;7.94;100.00;100698.91;5127895;27;20452;-68
2021/12/07 11:15:28;;;;;;;14.52;3.80;;;;;;;7.73;100.00;100698.84;5127113;27;20039;-67
2021/12/07 11:18:10;;;;;;;11.73;3.85;;;;;;;7.59;100.00;100696.84;5087140;27;20502;-67
2021/12/07 11:20:36;;;;;;;8.75;3.03;;;;;;;7.62;100.00;100694.41;5116175;27;20377;-67
2021/12/07 11:23:05;;;;;;;10.85;3.60;;;;;;;7.57;100.00;100685.41;5127291;27;20031;-67
2021/12/07 11:25:54;;;;;;;12.63;3.72;;;;;;;7.67;100.00;100678.09;5146642;27;20078;-68
2021/12/07 11:31:14;;;;;;;8.25;3.47;;;;;;;7.45;100.00;100674.72;5148310;27;20037;-67
2021/12/07 11:33:40;;;;;;;13.00;3.85;;;;;;;7.47;100.00;100664.34;5144473;27;20049;-67
2021/12/07 11:36:22;;;;;;;10.00;3.75;;;;;;;7.49;100.00;100664.91;5145854;27;20026;-68
2021/12/07 11:38:49;;;;;;;11.20;3.97;;;;;;;7.81;100.00;100655.75;5145234;27;20015;-68
2021/12/07 11:41:20;;;;;;;12.88;4.10;;;;;;;7.46;100.00;100649.06;5146660;27;20262;-67
2021/12/07 11:44:09;;;;;;;11.25;4.13;;;;;;;7.16;100.00;100632.28;5122586;27;20397;-67
2021/12/07 11:46:38;;;;;;;12.10;4.00;;;;;;;7.15;100.00;100629.84;5143568;27;20042;-67
2021/12/07 11:49:15;;;;;;;17.17;4.75;;;;;;;7.27;100.00;100635.88;5144694;27;20023;-68
2021/12/07 11:51:43;;;;;;;16.65;4.78;;;;;;;7.17;100.00;100630.38;5124774;27;20106;-67
2021/12/07 11:54:10;;;;;;;13.93;4.25;;;;;;;7.39;100.00;100616.56;5127179;27;20027;-68
2021/12/07 11:56:36;;;;;;;21.45;5.20;;;;;;;7.06;100.00;100601.44;5120659;27;20113;-68
2021/12/07 11:59:03;;;;;;;13.15;4.90;;;;;;;7.46;100.00;100594.50;5103923;27;20019;-70
2021/12/07 12:01:29;;;;;;;14.18;4.32;;;;;;;7.53;100.00;100576.81;5104188;27;20031;-67
2021/12/07 12:03:55;;;;;;;17.38;5.03;;;;;;;7.71;100.00;100570.03;5121879;27;20035;-68
2021/12/07 12:06:20;;;;;;;17.50;5.00;;;;;;;7.72;100.00;100566.22;5106542;27;20019;-68
2021/12/07 12:08:46;;;;;;;17.05;5.15;;;;;;;7.70;100.00;100551.19;5088221;27;20030;-68
2021/12/07 12:11:32;;;;;;;18.80;4.85;;;;;;;7.54;100.00;100558.50;5105964;27;20035;-68
2021/12/07 12:14:33;;;;;;;19.48;4.95;;;;;;;7.53;100.00;100554.16;5099796;27;20709;-68
2021/12/07 12:17:08;;;;;;;14.88;4.60;;;;;;;7.52;100.00;100552.53;5101827;27;20023;-67
2021/12/07 12:19:58;;;;;;;19.23;5.50;;;;;;;7.49;100.00;100547.59;5124286;27;20075;-68
2021/12/07 12:22:32;;;;;;;15.95;4.97;;;;;;;7.54;100.00;100540.25;5123139;27;20099;-67
2021/12/07 12:25:06;;;;;;;21.20;5.30;;;;;;;7.63;100.00;100546.00;5122820;27;20080;-68
2021/12/07 12:27:41;;;;;;;19.10;5.93;;;;;;;7.62;100.00;100536.16;5119765;27;20027;-68
2021/12/07 12:30:25;;;;;;;19.70;5.95;;;;;;;7.34;100.00;100521.91;5106993;27;20030;-68
2021/12/07 12:32:59;;;;;;;22.58;6.82;;;;;;;7.27;100.00;100515.09;5120712;27;20064;-68
2021/12/07 12:35:41;;;;;;;22.83;7.43;;;;;;;7.37;100.00;100515.13;5125998;27;20019;-69
2021/12/07 12:38:26;;;;;;;18.48;5.85;;;;;;;7.14;100.00;100513.69;5124822;27;20019;-67
2021/12/07 12:40:59;;;;;;;18.80;6.03;;;;;;;7.26;100.00;100503.34;5123600;27;20435;-68
2021/12/07 12:43:41;;;;;;;;;;;;;;;7.16;100.00;100497.88;5099236;28;20040;-68
2021/12/07 12:46:11;;;;;;;12.13;3.85;;;;;;;7.13;100.00;100471.13;5101817;28;19968;-67
2021/12/07 12:48:46;;;;;;;9.45;3.42;;;;;;;7.05;100.00;100455.31;5100987;28;20114;-68
2021/12/07 12:51:13;;;;;;;10.77;3.55;;;;;;;7.18;100.00;100477.44;5103713;28;20367;-67
2021/12/07 12:53:39;;;;;;;11.43;3.00;;;;;;;7.04;100.00;100465.41;5101090;28;20032;-68
2021/12/07 12:56:07;;;;;;;10.18;4.38;;;;;;;6.89;100.00;100440.81;5084468;28;20434;-68
2021/12/07 12:58:35;;;;;;;14.05;3.80;;;;;;;7.02;100.00;100448.50;5100049;28;20016;-68
2021/12/07 13:01:17;;;;;;;14.38;2.88;;;;;;;6.93;100.00;100431.00;5101381;28;20452;-69
2021/12/07 13:03:42;;;;;;;8.27;2.65;;;;;;;7.05;100.00;100422.59;5099522;28;20088;-67
2021/12/07 13:06:11;;;;;;;10.40;3.20;;;;;;;7.03;100.00;100419.31;5101469;28;20028;-68
2021/12/07 13:09:06;;;;;;;12.45;3.13;;;;;;;6.89;100.00;100413.56;5103226;28;20028;-68
2021/12/07 13:11:38;;;;;;;10.75;3.05;;;;;;;6.93;100.00;100410.03;5103285;28;20027;-68
2021/12/07 13:14:12;;;;;;;12.88;3.17;;;;;;;6.63;100.00;100395.22;5096805;28;20522;-68
2021/12/07 13:16:47;;;;;;;11.23;3.30;;;;;;;6.96;100.00;100393.13;5102164;28;20020;-68
2021/12/07 13:19:13;;;;;;;14.50;3.88;;;;;;;6.91;100.00;100393.13;5100810;28;20035;-68